Time;durP1;ratioP1;P1;durP2;ratioP2;P2;SDS_P1;SDS_P2;PMS_P1;PMS_P2;Temp;Humidity;BMP_temperature;BMP_pressure;BME280_temperature;BME280_humidity;BME280_pressure;Samples;Min_cycle;Max_cycle;Signal;HPM_P1;HPM_P2
2021/12/28 00:00:00;;;;;;;11.93;8.13;;;11.10;99.90;;;;;;5069625;28;20457;-70
2021/12/28 00:02:28;;;;;;;14.17;9.30;;;11.10;99.90;;;;;;5068895;28;20452;-70
2021/12/28 00:04:55;;;;;;;13.70;9.20;;;11.10;99.90;;;;;;5069277;28;20989;-70
2021/12/28 00:07:22;;;;;;;13.83;9.17;;;11.20;99.90;;;;;;5069262;28;20485;-69
2021/12/28 00:09:49;;;;;;;12.00;8.70;;;11.20;99.90;;;;;;5069278;28;20448;-69
2021/12/28 00:12:16;;;;;;;14.10;9.10;;;11.20;99.90;;;;;;5069198;28;20506;-69
2021/12/28 00:14:51;;;;;;;14.30;9.53;;;11.10;99.90;;;;;;5069116;28;20861;-68
2021/12/28 00:20:05;;;;;;;11.50;8.43;;;11.20;99.90;;;;;;5068994;28;20522;-69
2021/12/28 00:22:32;;;;;;;11.30;7.93;;;11.10;99.90;;;;;;5069077;28;20458;-70
2021/12/28 00:24:59;;;;;;;12.60;8.67;;;11.00;99.90;;;;;;5068637;28;20476;-69
2021/12/28 00:27:26;;;;;;;17.73;9.67;;;;;;;;;;5069982;28;20873;-71
2021/12/28 00:29:53;;;;;;;10.60;8.33;;;11.10;99.90;;;;;;5072888;28;20449;-70
2021/12/28 00:32:22;;;;;;;11.67;9.10;;;11.10;99.90;;;;;;5073361;28;20483;-69
2021/12/28 00:34:49;;;;;;;16.20;8.80;;;11.00;99.90;;;;;;5073252;28;20497;-69
2021/12/28 00:37:16;;;;;;;13.27;8.20;;;;;;;;;;5072858;28;20456;-70
2021/12/28 00:39:43;;;;;;;13.33;8.73;;;11.00;99.90;;;;;;5071567;28;20459;-69
2021/12/28 00:42:10;;;;;;;11.40;8.10;;;;;;;;;;5073019;28;20452;-70
2021/12/28 00:44:38;;;;;;;11.27;7.43;;;;;;;;;;5072906;28;20480;-70
2021/12/28 00:47:06;;;;;;;13.97;8.27;;;10.90;99.90;;;;;;5073204;28;20945;-70
2021/12/28 00:49:34;;;;;;;13.13;8.23;;;10.90;99.90;;;;;;5072996;28;20456;-71
2021/12/28 00:52:01;;;;;;;11.30;8.13;;;11.00;99.90;;;;;;5072294;28;20556;-69
2021/12/28 00:54:28;;;;;;;11.30;8.30;;;11.00;99.90;;;;;;5071904;28;20908;-69
2021/12/28 00:56:56;;;;;;;11.27;8.20;;;10.90;99.90;;;;;;5072618;28;20498;-71
2021/12/28 00:59:23;;;;;;;13.00;8.63;;;10.80;99.90;;;;;;5072401;28;20478;-69
2021/12/28 01:01:50;;;;;;;9.80;8.00;;;;;;;;;;5072574;28;20933;-69
2021/12/28 01:04:17;;;;;;;10.43;7.73;;;;;;;;;;5072660;28;20476;-70
2021/12/28 01:06:46;;;;;;;13.20;8.77;;;10.90;99.90;;;;;;5072462;28;20487;-70
2021/12/28 01:09:13;;;;;;;11.53;8.47;;;;;;;;;;5072232;28;20464;-70
2021/12/28 01:11:42;;;;;;;12.00;8.20;;;;;;;;;;5072197;28;20874;-69
2021/12/28 01:14:09;;;;;;;13.67;7.80;;;11.10;99.90;;;;;;5072288;28;20468;-70
2021/12/28 01:16:36;;;;;;;10.83;7.70;;;11.10;99.90;;;;;;5072316;28;20808;-69
2021/12/28 01:19:05;;;;;;;12.07;8.10;;;11.20;99.90;;;;;;5072323;28;20456;-70
2021/12/28 01:21:32;;;;;;;13.27;9.17;;;;;;;;;;5072127;28;20449;-70
2021/12/28 01:24:01;;;;;;;11.90;8.73;;;11.10;99.90;;;;;;5071668;28;20472;-70
2021/12/28 01:26:28;;;;;;;12.93;8.93;;;11.00;99.90;;;;;;5071948;28;20505;-70
2021/12/28 01:28:55;;;;;;;14.47;8.57;;;;;;;;;;5072168;28;20484;-70
2021/12/28 01:31:22;;;;;;;11.27;7.83;;;11.00;99.90;;;;;;5072051;28;20498;-70
2021/12/28 01:33:49;;;;;;;10.47;8.03;;;10.90;99.90;;;;;;5072129;28;20445;-70
2021/12/28 01:36:16;;;;;;;14.80;8.60;;;10.90;99.90;;;;;;5071476;28;20456;-70
2021/12/28 01:38:43;;;;;;;11.30;8.70;;;11.00;99.90;;;;;;5071220;28;20445;-69
2021/12/28 01:41:12;;;;;;;11.10;8.60;;;11.10;99.90;;;;;;5071435;28;20440;-69
2021/12/28 01:43:42;;;;;;;13.00;8.50;;;11.40;99.90;;;;;;5071510;28;20449;-69
2021/12/28 01:46:10;;;;;;;12.33;7.83;;;11.50;99.90;;;;;;5071685;28;20449;-69
2021/12/28 01:48:40;;;;;;;11.00;8.90;;;11.50;99.90;;;;;;5071635;28;20518;-69
2021/12/28 01:51:09;;;;;;;13.83;9.90;;;11.50;99.90;;;;;;5071287;28;20453;-69
2021/12/28 01:53:37;;;;;;;13.80;9.40;;;11.10;99.90;;;;;;5071382;28;20511;-69
2021/12/28 01:56:06;;;;;;;13.77;8.80;;;11.20;99.90;;;;;;5071258;28;20465;-69
2021/12/28 01:58:35;;;;;;;10.63;8.50;;;11.40;99.90;;;;;;5071438;28;20475;-69
2021/12/28 02:01:04;;;;;;;11.73;8.40;;;11.50;99.90;;;;;;5071439;28;20449;-70
2021/12/28 02:03:32;;;;;;;15.23;9.60;;;11.60;99.90;;;;;;5071204;28;20945;-69
2021/12/28 02:06:00;;;;;;;11.33;9.00;;;11.60;99.90;;;;;;5071006;28;20472;-69
2021/12/28 02:08:27;;;;;;;11.17;8.20;;;11.60;99.90;;;;;;5071271;28;20488;-70
2021/12/28 02:10:57;;;;;;;10.80;8.47;;;11.60;99.90;;;;;;5071378;28;21006;-71
2021/12/28 02:13:26;;;;;;;14.33;8.40;;;11.70;99.90;;;;;;5070712;28;20995;-69
2021/12/28 02:15:56;;;;;;;11.00;8.87;;;11.70;99.90;;;;;;5071217;28;20526;-69
2021/12/28 02:18:25;;;;;;;11.93;9.03;;;11.70;99.90;;;;;;5070975;28;20441;-70
2021/12/28 02:20:56;;;;;;;12.70;8.33;;;11.60;99.90;;;;;;5070647;28;20452;-70
2021/12/28 02:23:23;;;;;;;12.23;8.23;;;11.70;99.90;;;;;;5071088;28;20525;-69
2021/12/28 02:25:51;;;;;;;12.37;8.10;;;;;;;;;;5070270;28;20556;-69
2021/12/28 02:28:18;;;;;;;11.43;8.37;;;11.80;99.90;;;;;;5070692;28;20534;-71
2021/12/28 02:30:48;;;;;;;14.37;9.50;;;11.60;99.90;;;;;;5070667;28;20510;-70
2021/12/28 02:33:17;;;;;;;11.07;8.20;;;11.60;99.90;;;;;;5070726;28;20457;-69
2021/12/28 02:35:44;;;;;;;13.13;8.60;;;11.70;99.90;;;;;;5070574;28;20516;-69
2021/12/28 02:38:13;;;;;;;15.60;8.93;;;11.70;99.90;;;;;;5070883;28;20453;-69
2021/12/28 02:40:42;;;;;;;11.43;8.33;;;11.70;99.90;;;;;;5070619;28;20506;-69
2021/12/28 02:43:11;;;;;;;10.00;8.00;;;11.80;99.90;;;;;;5070243;28;20457;-69
2021/12/28 02:45:41;;;;;;;10.77;8.43;;;11.80;99.90;;;;;;5070286;28;20483;-69
2021/12/28 02:48:08;;;;;;;11.33;8.70;;;11.80;99.90;;;;;;5070085;28;20492;-70
2021/12/28 02:50:39;;;;;;;11.33;7.97;;;11.80;99.90;;;;;;5070379;28;20461;-70
2021/12/28 02:53:07;;;;;;;11.70;8.33;;;11.70;99.90;;;;;;5070314;28;20457;-69
2021/12/28 02:55:38;;;;;;;11.93;8.40;;;11.70;99.90;;;;;;5070713;28;20481;-70
2021/12/28 02:58:07;;;;;;;11.30;8.20;;;11.60;99.90;;;;;;5069910;28;20445;-68
2021/12/28 03:00:37;;;;;;;13.93;9.20;;;11.90;99.90;;;;;;5070585;28;20453;-69
2021/12/28 03:03:09;;;;;;;13.77;9.20;;;11.70;99.90;;;;;;5070111;28;20453;-68
2021/12/28 03:05:38;;;;;;;11.83;8.40;;;11.60;99.90;;;;;;5069428;28;20526;-69
2021/12/28 03:08:06;;;;;;;14.57;8.50;;;11.50;99.90;;;;;;5070172;28;20488;-71
2021/12/28 03:10:35;;;;;;;13.73;8.30;;;11.40;99.90;;;;;;5070118;28;20475;-70
2021/12/28 03:13:03;;;;;;;12.90;9.67;;;11.50;99.90;;;;;;5069835;28;20506;-69
2021/12/28 03:15:30;;;;;;;12.87;8.67;;;11.40;99.90;;;;;;5069804;28;20957;-69
2021/12/28 03:17:57;;;;;;;12.50;9.73;;;11.40;99.90;;;;;;5070467;28;20441;-69
2021/12/28 03:20:25;;;;;;;11.60;9.33;;;;;;;;;;5069948;28;20445;-70
2021/12/28 03:22:52;;;;;;;13.80;10.27;;;11.20;99.90;;;;;;5069685;28;20453;-69
2021/12/28 03:25:20;;;;;;;16.80;10.77;;;;;;;;;;5069694;28;20480;-69
2021/12/28 03:27:49;;;;;;;17.70;11.10;;;11.50;99.90;;;;;;5069415;28;20491;-69
2021/12/28 03:30:17;;;;;;;16.13;10.97;;;11.50;99.90;;;;;;5069759;28;20476;-70
2021/12/28 03:32:45;;;;;;;18.00;12.77;;;11.30;99.90;;;;;;5069734;28;20452;-70
2021/12/28 03:35:14;;;;;;;18.93;13.03;;;11.20;99.90;;;;;;5068044;28;20464;-70
2021/12/28 03:37:42;;;;;;;20.33;13.27;;;11.20;99.90;;;;;;5069567;28;20437;-70
2021/12/28 03:40:12;;;;;;;18.17;13.63;;;11.30;99.90;;;;;;5069569;28;20942;-69
2021/12/28 03:42:40;;;;;;;21.07;14.00;;;11.20;99.90;;;;;;5070661;28;20507;-69
2021/12/28 03:45:11;;;;;;;22.10;15.90;;;11.30;99.90;;;;;;5069783;28;20880;-70
2021/12/28 03:47:38;;;;;;;22.90;16.57;;;11.20;99.90;;;;;;5069116;28;20491;-69
2021/12/28 03:50:08;;;;;;;24.30;17.17;;;11.20;99.90;;;;;;5069387;28;20934;-70
2021/12/28 03:52:35;;;;;;;24.87;17.30;;;11.20;99.90;;;;;;5069418;28;20537;-69
2021/12/28 03:55:02;;;;;;;29.30;19.00;;;10.80;99.90;;;;;;5068908;28;20902;-69
2021/12/28 03:57:30;;;;;;;29.80;20.87;;;10.80;99.90;;;;;;5069347;28;20507;-70
2021/12/28 03:59:57;;;;;;;24.70;18.83;;;11.00;99.90;;;;;;5069631;28;20453;-70
2021/12/28 04:02:25;;;;;;;24.70;17.80;;;10.90;99.90;;;;;;5068510;28;20461;-70
2021/12/28 04:04:53;;;;;;;24.70;17.90;;;;;;;;;;5069111;28;20496;-70
2021/12/28 04:07:20;;;;;;;29.20;17.10;;;11.10;99.90;;;;;;5069322;28;20449;-70
2021/12/28 04:09:58;;;;;;;28.03;17.30;;;11.20;99.90;;;;;;5069395;28;20487;-70
2021/12/28 04:12:25;;;;;;;26.37;18.60;;;11.20;99.90;;;;;;5069152;28;20445;-69
2021/12/28 04:14:53;;;;;;;30.73;18.40;;;11.10;99.90;;;;;;5068823;28;21021;-69
2021/12/28 04:17:20;;;;;;;25.83;17.63;;;11.10;99.90;;;;;;5069109;28;20801;-69
2021/12/28 04:19:48;;;;;;;29.73;18.67;;;10.80;99.90;;;;;;5069176;28;20850;-69
2021/12/28 04:22:16;;;;;;;20.03;15.80;;;;;;;;;;5069104;28;21009;-69
2021/12/28 04:24:43;;;;;;;25.73;17.83;;;10.80;99.90;;;;;;5068380;28;21322;-69
2021/12/28 04:27:10;;;;;;;22.97;16.67;;;10.90;99.90;;;;;;5068960;28;20498;-69
2021/12/28 04:29:37;;;;;;;24.33;17.30;;;10.90;99.90;;;;;;5068857;28;20453;-69
2021/12/28 04:32:05;;;;;;;25.80;16.57;;;10.80;99.90;;;;;;5068869;28;20445;-68
2021/12/28 04:34:32;;;;;;;22.40;14.50;;;10.70;99.90;;;;;;5068685;28;20864;-69
2021/12/28 04:37:01;;;;;;;18.03;13.80;;;10.80;99.90;;;;;;5069101;28;20453;-69
2021/12/28 04:39:28;;;;;;;19.07;13.80;;;10.90;99.90;;;;;;5069078;28;20502;-69
2021/12/28 04:41:55;;;;;;;18.10;12.13;;;10.70;99.90;;;;;;5068993;28;20465;-69
2021/12/28 04:44:25;;;;;;;16.47;11.90;;;10.90;99.90;;;;;;5068874;28;20473;-70
2021/12/28 04:46:53;;;;;;;15.03;11.90;;;10.80;99.90;;;;;;5068918;28;20460;-69
2021/12/28 04:49:22;;;;;;;16.20;13.40;;;10.70;99.90;;;;;;5068777;28;20542;-69
2021/12/28 04:51:49;;;;;;;18.87;12.80;;;10.80;99.90;;;;;;5068999;28;20539;-70
2021/12/28 04:54:19;;;;;;;18.40;12.43;;;10.90;99.90;;;;;;5068225;28;20498;-69
2021/12/28 04:56:46;;;;;;;16.17;11.90;;;10.90;99.90;;;;;;5068647;28;20490;-70
2021/12/28 04:59:14;;;;;;;15.53;11.07;;;;;;;;;;5068903;28;20536;-69
2021/12/28 05:01:41;;;;;;;18.43;11.57;;;;;;;;;;5068977;28;20457;-69
2021/12/28 05:04:09;;;;;;;17.40;11.10;;;10.50;99.90;;;;;;5068501;28;21045;-69
2021/12/28 05:06:37;;;;;;;16.40;11.20;;;10.50;99.90;;;;;;5068842;28;20506;-69
2021/12/28 05:09:06;;;;;;;16.17;11.27;;;10.50;99.90;;;;;;5067142;28;20565;-69
2021/12/28 05:11:35;;;;;;;19.67;11.30;;;10.30;99.90;;;;;;5068538;28;20510;-68
2021/12/28 05:14:04;;;;;;;14.80;10.27;;;10.20;99.90;;;;;;5068624;28;20476;-69
2021/12/28 05:16:33;;;;;;;19.63;10.30;;;10.20;99.90;;;;;;5071998;28;20944;-69
2021/12/28 05:19:02;;;;;;;13.83;10.03;;;10.10;99.90;;;;;;5072129;28;20455;-70
2021/12/28 05:21:29;;;;;;;15.10;11.00;;;10.00;99.90;;;;;;5071828;28;20464;-69
2021/12/28 05:23:56;;;;;;;14.50;11.33;;;10.00;99.90;;;;;;5071958;28;20460;-70
2021/12/28 05:26:24;;;;;;;16.57;11.70;;;10.00;99.90;;;;;;5071985;28;20463;-69
2021/12/28 05:28:53;;;;;;;18.13;12.33;;;10.00;99.90;;;;;;5072190;28;20495;-70
2021/12/28 05:31:21;;;;;;;17.87;11.87;;;10.00;99.90;;;;;;5072106;28;20445;-69
2021/12/28 05:33:48;;;;;;;18.00;12.60;;;10.00;99.90;;;;;;5071705;28;20457;-70
2021/12/28 05:36:15;;;;;;;16.87;12.03;;;10.00;99.90;;;;;;5071661;28;20518;-70
2021/12/28 05:38:42;;;;;;;18.07;12.07;;;10.20;99.90;;;;;;5071673;28;20452;-69
2021/12/28 05:41:09;;;;;;;17.00;11.57;;;10.20;99.90;;;;;;5071672;28;20463;-70
2021/12/28 05:43:36;;;;;;;16.70;11.80;;;10.20;99.90;;;;;;5071660;28;20502;-70
2021/12/28 05:46:05;;;;;;;14.97;9.73;;;10.20;99.90;;;;;;5071680;28;20472;-69
2021/12/28 05:48:32;;;;;;;13.60;9.73;;;10.40;99.90;;;;;;5071620;28;20489;-69
2021/12/28 05:50:59;;;;;;;17.00;11.20;;;10.50;99.90;;;;;;5071791;28;20449;-70
2021/12/28 05:53:26;;;;;;;15.00;10.43;;;10.60;99.90;;;;;;5071183;28;20488;-69
2021/12/28 05:55:54;;;;;;;16.93;11.50;;;10.70;99.90;;;;;;5071140;28;20999;-69
2021/12/28 05:58:21;;;;;;;13.83;9.97;;;10.70;99.90;;;;;;5071375;28;20453;-70
2021/12/28 06:00:48;;;;;;;15.47;10.30;;;10.10;99.90;;;;;;5071446;28;20861;-70
2021/12/28 06:03:16;;;;;;;14.37;9.87;;;10.80;99.90;;;;;;5071396;28;20453;-70
2021/12/28 06:05:43;;;;;;;15.60;9.90;;;;;;;;;;5071076;28;20967;-70
2021/12/28 06:08:10;;;;;;;12.17;10.00;;;11.00;99.90;;;;;;5071443;28;20481;-71
2021/12/28 06:10:38;;;;;;;15.13;10.67;;;;;;;;;;5071270;28;20934;-71
2021/12/28 06:13:05;;;;;;;23.37;15.10;;;10.80;99.90;;;;;;5071376;28;20449;-70
2021/12/28 06:15:32;;;;;;;18.10;13.60;;;10.60;99.90;;;;;;5071054;28;20473;-70
2021/12/28 06:17:59;;;;;;;20.60;13.10;;;10.50;99.90;;;;;;5070964;28;20519;-69
2021/12/28 06:20:27;;;;;;;17.03;12.17;;;10.50;99.90;;;;;;5069558;28;20465;-69
2021/12/28 06:22:54;;;;;;;15.03;10.87;;;10.40;99.90;;;;;;5070931;28;20453;-70
2021/12/28 06:25:23;;;;;;;15.03;11.80;;;10.40;99.90;;;;;;5070220;28;20482;-70
2021/12/28 06:27:50;;;;;;;17.03;11.23;;;10.50;99.90;;;;;;5071108;28;20457;-69
2021/12/28 06:30:17;;;;;;;15.03;10.97;;;10.60;99.90;;;;;;5070897;28;20527;-69
2021/12/28 06:32:44;;;;;;;14.60;11.10;;;10.60;99.90;;;;;;5070574;28;21134;-70
2021/12/28 06:35:12;;;;;;;15.50;11.97;;;10.60;99.90;;;;;;5070759;28;20476;-70
2021/12/28 06:37:40;;;;;;;15.77;10.53;;;10.60;99.90;;;;;;5070918;28;20937;-70
2021/12/28 06:40:09;;;;;;;16.20;12.03;;;10.80;99.90;;;;;;5070497;28;20457;-69
2021/12/28 06:42:36;;;;;;;15.43;11.03;;;;;;;;;;5070758;28;20954;-69
2021/12/28 06:45:04;;;;;;;17.50;12.47;;;11.00;99.90;;;;;;5070335;28;20977;-70
2021/12/28 06:47:31;;;;;;;19.20;13.07;;;;;;;;;;5070472;28;20453;-70
2021/12/28 06:49:58;;;;;;;26.03;12.90;;;10.90;99.90;;;;;;5070562;28;20844;-70
2021/12/28 06:52:25;;;;;;;20.43;14.70;;;11.00;99.90;;;;;;5070608;28;21040;-70
2021/12/28 06:54:54;;;;;;;21.60;15.20;;;11.10;99.90;;;;;;5069590;28;21028;-70
2021/12/28 06:57:22;;;;;;;21.77;14.60;;;11.00;99.90;;;;;;5070098;28;20453;-70
2021/12/28 06:59:49;;;;;;;18.10;13.50;;;11.10;99.90;;;;;;5069857;28;20859;-69
2021/12/28 07:02:18;;;;;;;18.47;13.47;;;11.00;99.90;;;;;;5069919;28;20790;-70
2021/12/28 07:04:46;;;;;;;18.37;14.00;;;11.00;99.90;;;;;;5069866;28;21019;-70
2021/12/28 07:07:13;;;;;;;16.23;13.00;;;11.00;99.90;;;;;;5070366;28;20853;-69
2021/12/28 07:09:41;;;;;;;18.30;12.97;;;11.00;99.90;;;;;;5070013;28;21044;-70
2021/12/28 07:12:11;;;;;;;18.50;13.50;;;10.10;99.90;;;;;;5070178;28;20473;-76
2021/12/28 07:14:38;;;;;;;18.47;12.83;;;10.90;99.90;;;;;;5069999;28;20487;-74
2021/12/28 07:17:06;;;;;;;14.37;11.23;;;11.00;99.90;;;;;;5069412;28;20552;-70
2021/12/28 07:19:33;;;;;;;14.97;10.77;;;11.20;99.90;;;;;;5069988;28;20841;-69
2021/12/28 07:22:00;;;;;;;13.00;10.33;;;11.60;99.90;;;;;;5069790;28;20477;-69
2021/12/28 07:24:27;;;;;;;17.80;10.13;;;11.60;99.90;;;;;;5069510;28;20460;-74
2021/12/28 07:26:54;;;;;;;15.43;11.67;;;11.50;99.90;;;;;;5069679;28;20452;-72
2021/12/28 07:29:23;;;;;;;17.27;11.37;;;11.30;99.90;;;;;;5069889;28;20934;-70
2021/12/28 07:31:50;;;;;;;15.53;12.50;;;11.30;99.90;;;;;;5069683;28;20457;-70
2021/12/28 07:34:18;;;;;;;15.77;11.00;;;11.50;99.90;;;;;;5069910;28;20554;-69
2021/12/28 07:36:45;;;;;;;21.33;13.40;;;;;;;;;;5068657;28;20453;-68
2021/12/28 07:39:13;;;;;;;29.17;21.40;;;;;;;;;;5069087;28;20441;-75
2021/12/28 07:41:40;;;;;;;28.60;19.17;;;11.40;99.90;;;;;;5069970;28;20506;-69
2021/12/28 07:44:08;;;;;;;23.40;16.80;;;;;;;;;;5069634;28;20457;-71
2021/12/28 07:46:36;;;;;;;15.80;13.00;;;11.50;99.90;;;;;;5069074;28;20476;-71
2021/12/28 07:49:04;;;;;;;29.93;19.60;;;11.50;99.90;;;;;;5069551;28;20488;-70
2021/12/28 07:51:31;;;;;;;22.03;15.40;;;;;;;;;;5069489;28;21088;-70
2021/12/28 07:53:58;;;;;;;18.27;12.97;;;;;;;;;;5068665;28;20558;-70
2021/12/28 07:56:25;;;;;;;18.70;12.10;;;;;;;;;;5069014;28;20473;-70
2021/12/28 07:58:54;;;;;;;15.93;11.57;;;;;;;;;;5069518;28;20930;-70
2021/12/28 08:01:21;;;;;;;17.73;11.00;;;11.90;99.90;;;;;;5069285;28;20449;-70
2021/12/28 08:03:50;;;;;;;19.43;11.67;;;12.10;99.90;;;;;;5069434;28;20503;-70
2021/12/28 08:06:17;;;;;;;14.90;11.93;;;;;;;;;;5069404;28;20481;-74
2021/12/28 08:08:44;;;;;;;16.40;11.73;;;11.90;99.90;;;;;;5068959;28;20553;-71
2021/12/28 08:11:11;;;;;;;19.37;13.73;;;11.90;99.90;;;;;;5069312;28;20510;-70
2021/12/28 08:13:38;;;;;;;18.70;13.20;;;11.70;99.90;;;;;;5069397;28;20453;-71
2021/12/28 08:16:06;;;;;;;16.37;12.70;;;;;;;;;;5069024;28;20477;-71
2021/12/28 08:18:33;;;;;;;22.80;12.50;;;12.00;99.90;;;;;;5069524;28;21002;-71
2021/12/28 08:21:01;;;;;;;17.37;11.83;;;12.20;99.90;;;;;;5068777;28;20441;-71
2021/12/28 08:23:28;;;;;;;16.77;10.30;;;12.40;99.90;;;;;;5068901;28;20870;-71
2021/12/28 08:25:56;;;;;;;15.90;10.37;;;12.60;99.90;;;;;;5068945;28;20468;-74
2021/12/28 08:28:23;;;;;;;13.80;10.73;;;10.00;99.90;;;;;;5069117;28;20453;-71
2021/12/28 08:30:50;;;;;;;12.80;9.63;;;12.90;99.90;;;;;;5068970;28;20841;-72
2021/12/28 08:33:18;;;;;;;11.60;8.63;;;13.30;99.90;;;;;;5069214;28;20460;-73
2021/12/28 08:35:45;;;;;;;12.30;8.77;;;13.60;99.90;;;;;;5068630;28;20864;-73
2021/12/28 08:38:13;;;;;;;12.97;10.10;;;13.90;99.90;;;;;;5068665;28;20507;-73
2021/12/28 08:40:42;;;;;;;12.57;9.90;;;13.90;99.90;;;;;;5068953;28;20472;-71
2021/12/28 08:43:10;;;;;;;14.57;7.60;;;14.50;99.90;;;;;;5069106;28;20459;-71
2021/12/28 08:45:38;;;;;;;9.23;6.30;;;14.90;99.90;;;;;;5068650;28;20479;-72
2021/12/28 08:48:06;;;;;;;10.20;6.57;;;15.00;99.90;;;;;;5069006;28;20990;-72
2021/12/28 08:50:34;;;;;;;7.30;5.37;;;15.10;99.90;;;;;;5072855;28;20922;-74
2021/12/28 08:53:01;;;;;;;6.97;5.07;;;15.40;99.90;;;;;;5072489;28;20536;-74
2021/12/28 08:55:34;;;;;;;7.77;5.47;;;15.50;99.90;;;;;;5072510;28;20516;-71
2021/12/28 08:58:01;;;;;;;10.40;5.50;;;15.60;99.90;;;;;;5072091;28;20455;-72
2021/12/28 09:00:29;;;;;;;13.30;6.30;;;;;;;;;;5072673;28;20448;-72
2021/12/28 09:02:58;;;;;;;9.70;6.70;;;15.40;99.90;;;;;;5073641;28;20975;-71
2021/12/28 09:05:27;;;;;;;7.40;6.00;;;15.50;99.90;;;;;;5072609;28;20476;-73
2021/12/28 09:07:55;;;;;;;11.60;8.63;;;15.60;99.90;;;;;;5072152;28;20448;-72
2021/12/28 09:10:24;;;;;;;15.97;12.20;;;15.80;99.90;;;;;;5072501;28;20504;-72
2021/12/28 09:12:52;;;;;;;15.50;12.47;;;15.80;99.90;;;;;;5072536;28;20453;-72
2021/12/28 09:15:19;;;;;;;11.17;9.10;;;15.70;99.90;;;;;;5072151;28;20473;-74
2021/12/28 09:17:46;;;;;;;15.90;11.83;;;15.70;99.90;;;;;;5072386;28;20505;-74
2021/12/28 09:20:17;;;;;;;15.20;11.70;;;15.70;99.90;;;;;;5071982;28;20486;-71
2021/12/28 09:22:44;;;;;;;16.80;12.53;;;15.90;99.90;;;;;;5072308;28;20507;-70
2021/12/28 09:25:14;;;;;;;13.33;10.43;;;16.00;99.90;;;;;;5071749;28;20476;-69
2021/12/28 09:27:43;;;;;;;13.30;9.90;;;;;;;;;;5072035;28;20444;-73
2021/12/28 09:30:12;;;;;;;12.13;9.73;;;16.20;99.90;;;;;;5072030;28;20484;-72
2021/12/28 09:32:40;;;;;;;14.10;10.80;;;16.20;99.90;;;;;;5072041;28;20457;-70
2021/12/28 09:35:08;;;;;;;17.43;10.30;;;16.40;99.90;;;;;;5071852;28;20982;-69
2021/12/28 09:37:36;;;;;;;15.17;10.63;;;16.40;99.90;;;;;;5071953;28;20457;-69
2021/12/28 09:40:06;;;;;;;8.90;7.80;;;16.30;99.90;;;;;;5071857;28;20449;-69
2021/12/28 09:42:33;;;;;;;10.70;7.87;;;16.20;99.90;;;;;;5071673;28;20449;-69
2021/12/28 09:45:01;;;;;;;9.63;5.60;;;;;;;;;;5071472;28;20468;-71
2021/12/28 09:47:31;;;;;;;10.07;5.77;;;16.20;99.90;;;;;;5071967;28;20810;-71
2021/12/28 09:49:58;;;;;;;8.63;4.37;;;16.20;99.90;;;;;;5071913;28;20958;-71
2021/12/28 09:52:26;;;;;;;9.20;5.63;;;16.20;99.90;;;;;;5071723;28;20445;-71
2021/12/28 09:54:53;;;;;;;8.03;6.00;;;16.40;99.90;;;;;;5070977;28;20500;-71
2021/12/28 09:57:20;;;;;;;8.20;5.93;;;;;;;;;;5071716;28;20530;-68
2021/12/28 09:59:49;;;;;;;7.70;5.70;;;17.80;99.90;;;;;;5070676;28;20453;-69
2021/12/28 10:02:17;;;;;;;7.13;5.27;;;16.80;99.90;;;;;;5071405;28;20969;-69
2021/12/28 10:04:58;;;;;;;10.57;6.03;;;17.00;99.90;;;;;;5071436;28;20460;-70
2021/12/28 10:07:26;;;;;;;7.83;5.20;;;17.20;99.90;;;;;;5069869;28;20770;-69
2021/12/28 10:09:56;;;;;;;8.47;5.53;;;17.40;99.90;;;;;;5071151;28;20489;-69
2021/12/28 10:12:31;;;;;;;7.90;6.57;;;17.70;99.90;;;;;;5071480;28;20452;-69
2021/12/28 10:15:01;;;;;;;7.80;5.10;;;18.00;99.90;;;;;;5071066;28;20530;-69
2021/12/28 10:17:32;;;;;;;7.40;5.07;;;18.10;99.90;;;;;;5071155;28;20495;-69
2021/12/28 10:20:05;;;;;;;7.07;4.50;;;18.20;99.90;;;;;;5071042;28;20437;-70
2021/12/28 10:22:35;;;;;;;8.17;4.60;;;18.20;99.90;;;;;;5070903;28;20518;-69
2021/12/28 10:25:09;;;;;;;7.90;4.67;;;18.00;99.90;;;;;;5070916;28;20468;-71
2021/12/28 10:27:40;;;;;;;5.00;3.43;;;17.90;99.90;;;;;;5071185;28;20516;-70
2021/12/28 10:30:12;;;;;;;5.77;3.87;;;18.10;99.90;;;;;;5071150;28;20483;-70
2021/12/28 10:32:40;;;;;;;8.83;4.93;;;18.20;99.90;;;;;;5070977;28;20949;-69
2021/12/28 10:35:11;;;;;;;6.50;4.73;;;18.40;99.90;;;;;;5070937;28;20477;-69
2021/12/28 10:37:39;;;;;;;8.23;6.03;;;18.50;99.90;;;;;;5070913;28;20453;-70
2021/12/28 10:40:12;;;;;;;7.70;5.87;;;18.30;99.90;;;;;;5070662;28;20503;-70
2021/12/28 10:42:49;;;;;;;9.13;6.10;;;17.90;99.90;;;;;;5070442;28;20973;-70
2021/12/28 10:45:19;;;;;;;11.10;8.47;;;17.80;99.90;;;;;;5070206;28;20525;-69
2021/12/28 10:47:48;;;;;;;10.37;7.30;;;17.60;99.90;;;;;;5070238;28;20950;-70
2021/12/28 10:50:34;;;;;;;10.03;7.43;;;17.50;99.90;;;;;;5070507;28;20492;-70
2021/12/28 10:53:18;;;;;;;12.80;9.20;;;17.60;99.90;;;;;;5070058;28;20552;-70
2021/12/28 10:55:46;;;;;;;13.37;10.73;;;17.50;99.90;;;;;;5068779;28;20469;-70
2021/12/28 10:58:23;;;;;;;16.10;11.23;;;17.30;99.90;;;;;;5070605;28;20511;-69
2021/12/28 11:00:52;;;;;;;12.67;9.63;;;17.30;99.90;;;;;;5070337;28;20445;-69
2021/12/28 11:03:26;;;;;;;13.27;10.60;;;17.30;99.90;;;;;;5070470;28;20452;-69
2021/12/28 11:05:57;;;;;;;12.63;10.03;;;17.40;99.90;;;;;;5069815;28;20977;-70
2021/12/28 11:08:27;;;;;;;12.90;9.93;;;17.40;99.90;;;;;;5070105;28;20445;-70
2021/12/28 11:10:59;;;;;;;11.77;9.47;;;17.60;99.90;;;;;;5070163;28;20492;-69
2021/12/28 11:13:29;;;;;;;18.10;11.20;;;17.90;99.90;;;;;;5069445;28;20487;-70
2021/12/28 11:15:58;;;;;;;16.47;11.47;;;18.10;99.90;;;;;;5069991;28;20534;-70
2021/12/28 11:18:30;;;;;;;18.30;10.43;;;18.50;99.90;;;;;;5070258;28;20453;-71
2021/12/28 11:21:01;;;;;;;16.07;9.97;;;18.80;99.90;;;;;;5069921;28;20455;-70
2021/12/28 11:23:32;;;;;;;14.73;10.87;;;19.10;99.90;;;;;;5069883;28;20461;-70
2021/12/28 11:26:19;;;;;;;13.67;11.17;;;19.50;99.90;;;;;;5069879;28;20469;-70
2021/12/28 11:29:02;;;;;;;14.70;10.20;;;19.70;99.90;;;;;;5068307;28;20453;-70
2021/12/28 11:31:35;;;;;;;12.33;10.57;;;19.50;99.90;;;;;;5069576;28;20496;-68
2021/12/28 11:34:12;;;;;;;14.07;11.60;;;19.40;99.90;;;;;;5069896;28;20522;-69
2021/12/28 11:36:43;;;;;;;16.90;10.90;;;19.40;99.90;;;;;;5069892;28;20947;-68
2021/12/28 11:39:12;;;;;;;13.87;11.83;;;19.30;99.90;;;;;;5069472;28;20544;-69
2021/12/28 11:41:41;;;;;;;16.60;11.80;;;19.10;99.90;;;;;;5068303;28;20452;-71
2021/12/28 11:44:08;;;;;;;13.83;11.97;;;19.00;99.90;;;;;;5069825;28;20863;-70
2021/12/28 11:46:36;;;;;;;17.80;10.80;;;18.70;99.90;;;;;;5069512;28;20484;-71
2021/12/28 11:49:06;;;;;;;14.97;11.63;;;18.40;99.90;;;;;;5069711;28;20503;-69
2021/12/28 11:51:34;;;;;;;16.60;12.20;;;18.20;99.90;;;;;;5069429;28;20511;-68
2021/12/28 11:54:07;;;;;;;17.20;12.63;;;18.10;99.90;;;;;;5069380;28;20492;-68
2021/12/28 11:56:38;;;;;;;19.90;12.07;;;18.00;99.90;;;;;;5069801;28;20512;-69
2021/12/28 11:59:11;;;;;;;20.20;12.77;;;17.90;99.90;;;;;;5069567;28;20506;-70
2021/12/28 12:01:54;;;;;;;12.23;10.60;;;17.90;99.90;;;;;;5069571;28;20453;-70
2021/12/28 12:04:57;;;;;;;15.43;12.17;;;17.90;99.90;;;;;;5069355;28;20453;-68
2021/12/28 12:07:31;;;;;;;16.87;12.20;;;17.80;99.90;;;;;;5069288;28;20460;-71
2021/12/28 12:10:32;;;;;;;15.30;12.07;;;17.80;99.90;;;;;;5069240;28;20480;-70
2021/12/28 12:13:13;;;;;;;17.70;13.33;;;17.50;99.90;;;;;;5069203;28;20816;-69
2021/12/28 12:15:43;;;;;;;17.10;13.10;;;17.40;99.90;;;;;;5069175;28;20492;-70
2021/12/28 12:18:13;;;;;;;17.03;13.70;;;17.10;99.90;;;;;;5069301;28;20449;-69
2021/12/28 12:20:50;;;;;;;17.57;12.03;;;17.10;99.90;;;;;;5068721;28;20449;-69
2021/12/28 12:23:21;;;;;;;17.43;10.87;;;16.90;99.90;;;;;;5066045;28;20449;-70
2021/12/28 12:26:04;;;;;;;15.83;11.67;;;16.90;99.90;;;;;;5053245;28;20477;-70
2021/12/28 12:28:37;;;;;;;15.47;11.10;;;16.80;99.90;;;;;;5053471;28;20804;-71
2021/12/28 12:31:06;;;;;;;18.80;12.40;;;16.70;99.90;;;;;;5052977;28;20874;-70
2021/12/28 12:33:44;;;;;;;13.33;9.73;;;16.80;99.90;;;;;;5053216;28;20503;-70
2021/12/28 12:36:20;;;;;;;17.60;9.77;;;16.80;99.90;;;;;;5052438;28;21006;-70
2021/12/28 12:38:48;;;;;;;13.50;8.47;;;16.80;99.90;;;;;;5053271;28;20449;-69
2021/12/28 12:41:19;;;;;;;11.90;8.50;;;16.70;99.90;;;;;;5053130;28;20458;-69
2021/12/28 12:43:56;;;;;;;10.10;7.37;;;16.60;99.90;;;;;;5052809;28;20504;-70
2021/12/28 12:46:29;;;;;;;11.13;9.20;;;16.40;99.90;;;;;;5053263;28;20485;-70
2021/12/28 12:49:11;;;;;;;11.67;8.60;;;16.20;99.90;;;;;;5052853;28;20942;-75
2021/12/28 12:51:50;;;;;;;12.17;8.30;;;16.20;99.90;;;;;;5052712;28;20490;-69
2021/12/28 12:54:26;;;;;;;11.90;8.60;;;16.20;99.90;;;;;;5052374;28;20488;-69